createdAt,value
2023-08-22T00:00:55.850Z,15.43
2023-08-22T00:03:22.555Z,14.85
2023-08-22T00:05:49.341Z,16.08
2023-08-22T00:08:17.499Z,15.00
2023-08-22T00:10:44.205Z,15.25
2023-08-22T00:13:10.814Z,15.40
2023-08-22T00:15:37.557Z,15.52
2023-08-22T00:18:13.098Z,15.40
2023-08-22T00:20:50.420Z,15.23
2023-08-22T00:23:17.788Z,14.55
2023-08-22T00:25:44.407Z,16.33
2023-08-22T00:28:11.930Z,15.55
2023-08-22T00:30:39.899Z,14.80
2023-08-22T00:33:19.956Z,13.98
2023-08-22T00:35:47.250Z,15.95
2023-08-22T00:38:13.952Z,15.90
2023-08-22T00:40:41.205Z,15.20
2023-08-22T00:43:07.879Z,16.15
2023-08-22T00:45:42.378Z,16.52
2023-08-22T00:48:18.244Z,14.80
2023-08-22T00:50:52.907Z,14.93
2023-08-22T00:53:19.639Z,15.27
2023-08-22T00:55:46.478Z,15.80
2023-08-22T00:58:15.211Z,15.20
2023-08-22T01:00:42.219Z,16.05
2023-08-22T01:03:13.098Z,15.90
2023-08-22T01:05:48.962Z,15.20
2023-08-22T01:08:25.766Z,14.93
2023-08-22T01:11:00.268Z,16.23
2023-08-22T01:13:34.137Z,15.35
2023-08-22T01:16:02.411Z,14.90
2023-08-22T01:18:30.119Z,15.27
2023-08-22T01:21:05.613Z,14.82
2023-08-22T01:23:32.539Z,16.02
2023-08-22T01:25:59.645Z,14.73
2023-08-22T01:28:29.941Z,15.77
2023-08-22T01:31:12.551Z,16.03
2023-08-22T01:33:43.999Z,15.45
2023-08-22T01:36:13.144Z,15.85
2023-08-22T01:38:49.010Z,15.95
2023-08-22T01:41:16.825Z,15.70
2023-08-22T01:43:44.396Z,15.90
2023-08-22T01:46:11.093Z,16.02
2023-08-22T01:48:38.264Z,16.20
2023-08-22T01:51:08.075Z,15.57
2023-08-22T01:53:34.730Z,15.60
2023-08-22T01:56:02.423Z,15.82
2023-08-22T01:58:31.269Z,14.30
2023-08-22T02:00:58.817Z,15.05
2023-08-22T02:03:25.732Z,15.88
2023-08-22T02:05:52.428Z,15.63
2023-08-22T02:08:19.013Z,16.45
2023-08-22T02:10:45.633Z,15.40
2023-08-22T02:13:14.631Z,14.95
2023-08-22T02:15:41.841Z,15.93
2023-08-22T02:18:08.504Z,14.73
2023-08-22T02:20:35.239Z,16.95
2023-08-22T02:23:03.746Z,15.75
2023-08-22T02:25:37.136Z,16.50
2023-08-22T02:28:04.821Z,15.50
2023-08-22T02:30:31.458Z,17.65
2023-08-22T02:33:01.826Z,16.23
2023-08-22T02:35:28.494Z,14.68
2023-08-22T02:37:56.811Z,15.75
2023-08-22T02:40:30.026Z,16.00
2023-08-22T02:42:56.954Z,16.10
2023-08-22T02:45:23.605Z,15.38
2023-08-22T02:47:52.462Z,15.65
2023-08-22T02:50:19.897Z,15.98
2023-08-22T02:52:51.474Z,15.68
2023-08-22T02:55:19.941Z,16.95
2023-08-22T02:57:51.544Z,16.60
2023-08-22T03:00:19.520Z,15.95
2023-08-22T03:02:46.261Z,15.50
2023-08-22T03:05:20.737Z,16.05
2023-08-22T03:07:52.679Z,16.00
2023-08-22T03:10:21.092Z,16.55
2023-08-22T03:12:51.628Z,15.27
2023-08-22T03:15:27.368Z,15.85
2023-08-22T03:17:54.005Z,16.40
2023-08-22T03:20:20.747Z,16.95
2023-08-22T03:22:47.300Z,15.13
2023-08-22T03:25:19.037Z,17.40
2023-08-22T03:27:45.631Z,17.20
2023-08-22T03:30:12.538Z,16.55
2023-08-22T03:32:49.644Z,15.65
2023-08-22T03:35:16.309Z,15.65
2023-08-22T03:37:43.476Z,15.30
2023-08-22T03:40:21.377Z,16.00
2023-08-22T03:42:53.376Z,15.63
2023-08-22T03:45:20.001Z,16.27
2023-08-22T03:47:46.729Z,15.80
2023-08-22T03:50:17.717Z,15.02
2023-08-22T03:52:44.397Z,14.68
2023-08-22T03:55:19.146Z,16.52
2023-08-22T03:57:45.797Z,16.52
2023-08-22T04:00:13.224Z,16.05
2023-08-22T04:02:40.023Z,15.70
2023-08-22T04:05:07.157Z,17.40
2023-08-22T04:07:36.407Z,17.27
2023-08-22T04:10:04.004Z,18.13
2023-08-22T04:12:30.642Z,16.13
2023-08-22T04:14:57.654Z,15.52
2023-08-22T04:17:24.445Z,16.63
2023-08-22T04:19:52.218Z,17.17
2023-08-22T04:22:20.417Z,16.60
2023-08-22T04:24:47.046Z,16.40
2023-08-22T04:27:13.918Z,16.77
2023-08-22T04:29:41.118Z,17.40
2023-08-22T04:32:10.154Z,16.67
2023-08-22T04:34:36.717Z,17.38
2023-08-22T04:37:05.541Z,17.58
2023-08-22T04:39:32.264Z,16.13
2023-08-22T04:41:59.076Z,16.00
2023-08-22T04:44:27.174Z,17.80
2023-08-22T04:46:53.830Z,16.85
2023-08-22T04:49:20.515Z,17.45
2023-08-22T04:51:47.246Z,17.25
2023-08-22T04:54:14.164Z,17.30
2023-08-22T04:56:40.734Z,17.13
2023-08-22T04:59:07.715Z,19.33
2023-08-22T05:01:34.610Z,19.42
2023-08-22T05:04:01.521Z,16.98
2023-08-22T05:06:28.227Z,19.00
2023-08-22T05:08:54.944Z,18.67
2023-08-22T05:11:22.925Z,17.88
2023-08-22T05:13:49.520Z,18.05
2023-08-22T05:16:16.264Z,16.17
2023-08-22T05:18:42.938Z,17.27
2023-08-22T05:21:11.456Z,19.17
2023-08-22T05:23:41.632Z,19.70
2023-08-22T05:26:12.121Z,18.17
2023-08-22T05:28:38.713Z,18.95
2023-08-22T05:31:05.265Z,17.77
2023-08-22T05:33:31.903Z,18.55
2023-08-22T05:35:58.508Z,17.95
2023-08-22T05:38:28.319Z,18.85
2023-08-22T05:40:54.953Z,17.92
2023-08-22T05:43:21.579Z,18.10
2023-08-22T05:45:48.277Z,17.08
2023-08-22T05:48:17.881Z,18.38
2023-08-22T05:50:44.653Z,18.25
2023-08-22T05:53:15.556Z,16.42
2023-08-22T05:55:44.278Z,16.08
2023-08-22T05:58:11.169Z,18.05
2023-08-22T06:00:38.809Z,16.60
2023-08-22T06:03:09.279Z,16.92
2023-08-22T06:05:36.725Z,17.63
2023-08-22T06:08:08.576Z,16.65
2023-08-22T06:10:35.184Z,16.30
2023-08-22T06:13:06.995Z,17.15
2023-08-22T06:15:36.860Z,16.80
2023-08-22T06:18:03.711Z,16.40
2023-08-22T06:20:30.591Z,17.13
2023-08-22T06:22:57.378Z,15.80
2023-08-22T06:25:29.030Z,16.42
2023-08-22T06:27:57.870Z,16.20
2023-08-22T06:30:24.877Z,16.88
2023-08-22T06:33:00.428Z,16.42
2023-08-22T06:35:29.436Z,16.25
2023-08-22T06:37:58.260Z,15.73
2023-08-22T06:40:24.888Z,15.98
2023-08-22T06:42:57.776Z,16.92
2023-08-22T06:45:26.019Z,17.27
2023-08-22T06:47:52.817Z,17.42
2023-08-22T06:50:20.023Z,15.77
2023-08-22T06:52:47.846Z,15.98
2023-08-22T06:55:15.059Z,16.10
2023-08-22T06:57:51.560Z,15.85
2023-08-22T07:00:19.357Z,17.17
2023-08-22T07:02:47.598Z,16.08
2023-08-22T07:05:16.338Z,17.33
2023-08-22T07:07:45.545Z,16.52
2023-08-22T07:10:14.945Z,16.88
2023-08-22T07:15:11.596Z,17.83
2023-08-22T07:17:39.254Z,15.73
2023-08-22T07:20:08.283Z,17.02
2023-08-22T07:22:34.945Z,16.75
2023-08-22T07:25:01.717Z,16.08
2023-08-22T07:27:28.602Z,15.65
2023-08-22T07:29:55.639Z,16.83
2023-08-22T07:32:27.401Z,17.13
2023-08-22T07:34:54.758Z,17.23
2023-08-22T07:37:21.502Z,16.95
2023-08-22T07:39:48.095Z,16.88
2023-08-22T07:42:26.228Z,16.60
2023-08-22T07:44:52.819Z,15.63
2023-08-22T07:47:21.051Z,16.92
2023-08-22T07:49:51.874Z,15.52
2023-08-22T07:52:18.622Z,16.60
2023-08-22T07:54:46.943Z,15.20
2023-08-22T07:57:18.816Z,15.70
2023-08-22T07:59:51.465Z,16.10
2023-08-22T08:02:20.975Z,16.10
2023-08-22T08:05:42.646Z,16.65
2023-08-22T08:09:29.384Z,16.90
2023-08-22T08:18:50.507Z,16.50
2023-08-22T08:21:43.278Z,16.33
2023-08-22T08:24:09.925Z,17.05
2023-08-22T08:26:36.620Z,17.02
2023-08-22T08:29:08.179Z,16.25
2023-08-22T08:31:41.110Z,16.50
2023-08-22T08:34:07.898Z,15.90
2023-08-22T08:36:38.658Z,17.10
2023-08-22T08:39:05.246Z,15.85
2023-08-22T08:41:37.430Z,17.15
2023-08-22T08:44:10.062Z,17.15
2023-08-22T08:46:37.556Z,15.77
2023-08-22T08:49:06.815Z,16.25
2023-08-22T08:51:34.540Z,15.88
2023-08-22T08:54:05.897Z,16.63
2023-08-22T08:56:32.614Z,15.63
2023-08-22T08:59:02.966Z,15.00
2023-08-22T09:01:31.191Z,16.77
2023-08-22T09:03:58.151Z,16.33
2023-08-22T09:06:25.687Z,17.35
2023-08-22T09:09:05.815Z,16.02
2023-08-22T09:11:36.045Z,16.67
2023-08-22T09:14:06.192Z,17.02
2023-08-22T09:16:33.462Z,16.77
2023-08-22T09:19:01.226Z,16.67
2023-08-22T09:21:32.658Z,16.70
2023-08-22T09:24:09.765Z,16.77
2023-08-22T09:26:40.782Z,16.67
2023-08-22T09:29:08.284Z,16.25
2023-08-22T09:31:36.924Z,17.02
2023-08-22T09:34:11.965Z,16.02
2023-08-22T09:36:50.626Z,17.02
2023-08-22T09:39:18.853Z,18.60
2023-08-22T09:41:45.572Z,17.55
2023-08-22T09:44:26.201Z,15.35
2023-08-22T09:47:10.081Z,16.20
2023-08-22T09:49:53.658Z,15.57
2023-08-22T09:52:24.224Z,16.88
2023-08-22T09:55:04.408Z,16.63
2023-08-22T09:57:45.401Z,16.95
2023-08-22T10:00:19.227Z,16.63
2023-08-22T10:02:55.016Z,17.70
2023-08-22T10:05:36.409Z,16.13
2023-08-22T10:08:04.450Z,17.70
2023-08-22T10:10:44.184Z,17.40
2023-08-22T10:13:19.048Z,18.05
2023-08-22T10:15:48.269Z,17.17
2023-08-22T10:18:19.287Z,16.15
2023-08-22T10:23:13.084Z,15.95
2023-08-22T10:25:59.330Z,18.02
2023-08-22T10:28:36.487Z,16.58
2023-08-22T10:31:08.623Z,15.48
2023-08-22T10:33:41.738Z,16.27
2023-08-22T10:36:29.715Z,17.95
2023-08-22T10:39:11.077Z,16.75
2023-08-22T10:44:41.265Z,15.57
2023-08-22T10:47:21.209Z,16.50
2023-08-22T10:52:42.686Z,16.08
2023-08-22T10:55:16.130Z,15.05
2023-08-22T10:57:46.807Z,15.80
2023-08-22T11:00:23.807Z,18.00
2023-08-22T11:02:57.297Z,16.35
2023-08-22T11:05:24.632Z,15.52
2023-08-22T11:07:53.491Z,15.82
2023-08-22T11:10:24.987Z,16.05
2023-08-22T11:13:04.131Z,14.27
2023-08-22T11:15:38.137Z,15.90
2023-08-22T11:18:15.148Z,16.98
2023-08-22T11:20:50.076Z,15.77
2023-08-22T11:23:18.213Z,16.50
2023-08-22T11:25:44.831Z,16.98
2023-08-22T11:28:30.389Z,15.63
2023-08-22T11:31:08.850Z,15.80
2023-08-22T11:33:56.018Z,15.65
2023-08-22T11:40:16.553Z,14.23
2023-08-22T11:42:43.682Z,15.57
2023-08-22T11:45:14.743Z,16.00
2023-08-22T11:47:47.617Z,15.30
2023-08-22T11:50:19.725Z,14.32
2023-08-22T11:52:49.009Z,14.50
2023-08-22T11:55:18.218Z,15.90
2023-08-22T11:57:47.512Z,15.55
2023-08-22T12:00:15.488Z,15.23
2023-08-22T12:02:52.936Z,16.02
2023-08-22T12:05:31.594Z,16.02
2023-08-22T12:07:59.689Z,15.43
2023-08-22T12:10:26.559Z,15.80
2023-08-22T12:12:53.897Z,16.42
2023-08-22T12:15:20.592Z,15.05
2023-08-22T12:17:48.168Z,15.60
2023-08-22T12:20:15.074Z,16.15
2023-08-22T12:22:41.957Z,15.50
2023-08-22T12:25:08.911Z,16.38
2023-08-22T12:27:37.023Z,14.30
2023-08-22T12:30:04.193Z,14.75
2023-08-22T12:32:31.992Z,16.27
2023-08-22T12:35:01.394Z,15.05
2023-08-22T12:37:31.595Z,14.80
2023-08-22T12:40:00.806Z,15.38
2023-08-22T12:42:27.647Z,16.38
2023-08-22T12:44:54.282Z,15.63
2023-08-22T12:47:20.983Z,14.40
2023-08-22T12:49:47.813Z,15.02
2023-08-22T12:52:14.753Z,16.25
2023-08-22T12:54:41.484Z,15.85
2023-08-22T12:57:09.686Z,15.98
2023-08-22T12:59:37.306Z,15.13
2023-08-22T13:02:04.294Z,15.45
2023-08-22T13:04:34.312Z,14.68
2023-08-22T13:07:04.359Z,14.90
2023-08-22T13:09:34.621Z,15.57
2023-08-22T13:12:01.336Z,15.35
2023-08-22T13:14:28.322Z,15.30
2023-08-22T13:16:56.378Z,15.20
2023-08-22T13:19:28.636Z,14.65
2023-08-22T13:21:55.282Z,15.23
2023-08-22T13:24:22.544Z,14.60
2023-08-22T13:26:49.239Z,13.75
2023-08-22T13:29:17.207Z,14.77
2023-08-22T13:31:44.064Z,14.85
2023-08-22T13:34:10.740Z,14.38
2023-08-22T13:36:37.485Z,14.60
2023-08-22T13:39:05.692Z,14.93
2023-08-22T13:41:32.660Z,14.85
2023-08-22T13:43:59.841Z,14.82
2023-08-22T13:46:30.028Z,14.05
2023-08-22T13:48:57.576Z,14.75
2023-08-22T13:51:24.500Z,14.43
2023-08-22T13:53:51.254Z,14.30
2023-08-22T13:56:18.076Z,13.52
2023-08-22T13:58:44.907Z,15.38
2023-08-22T14:01:11.651Z,14.02
2023-08-22T14:03:38.406Z,14.63
2023-08-22T14:06:07.484Z,16.17
2023-08-22T14:08:35.895Z,15.18
2023-08-22T14:11:02.735Z,14.07
2023-08-22T14:13:29.443Z,14.75
2023-08-22T14:15:56.286Z,15.65
2023-08-22T14:18:23.171Z,15.38
2023-08-22T14:20:49.983Z,14.90
2023-08-22T14:23:16.739Z,15.07
2023-08-22T14:25:46.585Z,16.33
2023-08-22T14:28:16.149Z,14.65
2023-08-22T14:30:42.817Z,14.52
2023-08-22T14:33:11.993Z,15.32
2023-08-22T14:35:42.827Z,15.60
2023-08-22T14:38:12.230Z,15.02
2023-08-22T14:40:39.117Z,16.23
2023-08-22T14:43:06.010Z,15.60
2023-08-22T14:45:36.692Z,13.95
2023-08-22T14:48:17.777Z,14.80
2023-08-22T14:50:46.415Z,15.18
2023-08-22T14:53:14.933Z,15.73
2023-08-22T14:56:00.516Z,15.90
2023-08-22T14:58:48.182Z,14.95
2023-08-22T15:01:18.676Z,15.75
2023-08-22T15:03:48.292Z,15.13
2023-08-22T15:06:15.194Z,15.75
2023-08-22T15:08:45.466Z,15.00
2023-08-22T15:11:12.519Z,15.90
2023-08-22T15:13:43.685Z,15.38
2023-08-22T15:16:11.083Z,16.25
2023-08-22T15:18:39.411Z,15.20
2023-08-22T15:21:09.231Z,15.13
2023-08-22T15:23:39.536Z,15.93
2023-08-22T15:26:06.529Z,15.27
2023-08-22T15:28:33.374Z,15.70
2023-08-22T15:31:00.165Z,14.77
2023-08-22T15:33:29.070Z,15.75
2023-08-22T15:36:02.086Z,13.82
2023-08-22T15:38:33.558Z,13.82
2023-08-22T15:41:02.179Z,14.50
2023-08-22T15:43:31.108Z,14.35
2023-08-22T15:45:58.067Z,14.63
2023-08-22T15:48:28.362Z,13.52
2023-08-22T15:50:58.800Z,14.30
2023-08-22T15:53:34.003Z,15.07
2023-08-22T15:56:07.129Z,15.13
2023-08-22T15:58:34.219Z,14.93
2023-08-22T16:01:00.976Z,13.82
2023-08-22T16:03:27.877Z,14.85
2023-08-22T16:06:00.662Z,13.82
2023-08-22T16:08:30.843Z,13.95
2023-08-22T16:11:01.342Z,13.85
2023-08-22T16:13:31.151Z,13.67
2023-08-22T16:15:58.375Z,13.57
2023-08-22T16:18:25.292Z,14.45
2023-08-22T16:20:53.266Z,13.90
2023-08-22T16:23:22.912Z,14.77
2023-08-22T16:25:51.000Z,13.25
2023-08-22T16:28:23.630Z,14.15
2023-08-22T16:30:51.564Z,13.32
2023-08-22T16:33:18.944Z,14.52
2023-08-22T16:35:52.874Z,13.48
2023-08-22T16:38:21.052Z,14.15
2023-08-22T16:40:47.786Z,12.57
2023-08-22T16:43:14.687Z,13.43
2023-08-22T16:45:42.863Z,13.85
2023-08-22T16:48:09.824Z,13.82
2023-08-22T16:50:49.880Z,14.13
2023-08-22T16:53:17.004Z,13.15
2023-08-22T16:55:44.579Z,13.63
2023-08-22T16:58:11.691Z,13.32
2023-08-22T17:03:20.448Z,14.25
2023-08-22T17:05:47.527Z,13.75
2023-08-22T17:08:18.956Z,14.65
2023-08-22T17:10:46.497Z,13.55
2023-08-22T17:13:13.489Z,14.88
2023-08-22T17:15:45.327Z,14.27
2023-08-22T17:18:12.739Z,14.32
2023-08-22T17:20:49.776Z,14.95
2023-08-22T17:23:22.682Z,14.45
2023-08-22T17:25:50.491Z,14.07
2023-08-22T17:28:21.284Z,14.23
2023-08-22T17:30:49.549Z,14.60
2023-08-22T17:33:16.582Z,13.43
2023-08-22T17:35:51.084Z,15.45
2023-08-22T17:38:18.677Z,15.77
2023-08-22T17:40:45.459Z,16.27
2023-08-22T17:43:12.480Z,16.58
2023-08-22T17:45:39.352Z,15.68
2023-08-22T17:48:09.302Z,15.27
2023-08-22T17:50:38.233Z,15.73
2023-08-22T17:53:06.433Z,15.98
2023-08-22T17:55:34.954Z,15.52
2023-08-22T17:58:04.898Z,14.40
2023-08-22T18:00:34.452Z,14.63
2023-08-22T18:03:01.513Z,15.57
2023-08-22T18:05:28.449Z,15.35
2023-08-22T18:07:55.201Z,15.23
2023-08-22T18:10:24.798Z,15.23
2023-08-22T18:12:51.848Z,15.10
2023-08-22T18:15:18.649Z,15.15
2023-08-22T18:17:45.785Z,15.45
2023-08-22T18:20:21.055Z,15.35
2023-08-22T18:22:50.464Z,15.57
2023-08-22T18:25:17.726Z,14.27
2023-08-22T18:27:45.280Z,15.25
2023-08-22T18:30:12.918Z,15.48
2023-08-22T18:32:39.697Z,15.40
2023-08-22T18:35:07.567Z,15.93
2023-08-22T18:37:37.574Z,15.82
2023-08-22T18:40:13.239Z,14.70
2023-08-22T18:42:41.872Z,15.32
2023-08-22T18:45:09.140Z,14.48
2023-08-22T18:47:36.189Z,16.20
2023-08-22T18:50:04.517Z,16.25
2023-08-22T18:52:33.106Z,15.90
2023-08-22T18:55:00.925Z,15.50
2023-08-22T18:57:28.603Z,15.05
2023-08-22T18:59:55.691Z,15.82
2023-08-22T19:02:22.791Z,16.20
2023-08-22T19:04:52.790Z,15.85
2023-08-22T19:07:19.601Z,15.00
2023-08-22T19:09:46.303Z,15.10
2023-08-22T19:12:13.821Z,15.52
2023-08-22T19:14:40.739Z,16.73
2023-08-22T19:17:07.994Z,14.82
2023-08-22T19:19:34.685Z,15.68
2023-08-22T19:22:01.479Z,16.33
2023-08-22T19:24:28.537Z,16.67
2023-08-22T19:27:01.241Z,16.70
2023-08-22T19:29:31.263Z,17.10
2023-08-22T19:32:17.318Z,16.55
2023-08-22T19:34:49.510Z,16.50
2023-08-22T19:37:16.320Z,15.65
2023-08-22T19:39:48.426Z,16.02
2023-08-22T19:42:15.550Z,16.05
2023-08-22T19:44:42.236Z,16.35
2023-08-22T19:47:09.153Z,16.30
2023-08-22T19:49:39.206Z,15.20
2023-08-22T19:52:07.284Z,16.25
2023-08-22T19:54:34.647Z,17.27
2023-08-22T19:57:01.353Z,16.42
2023-08-22T19:59:28.904Z,16.27
2023-08-22T20:01:56.270Z,16.83
2023-08-22T20:04:23.505Z,16.50
2023-08-22T20:06:50.427Z,15.95
2023-08-22T20:09:17.133Z,17.05
2023-08-22T20:11:44.209Z,19.02
2023-08-22T20:14:10.896Z,17.33
2023-08-22T20:16:38.933Z,17.95
2023-08-22T20:19:05.816Z,16.52
2023-08-22T20:21:32.906Z,17.23
2023-08-22T20:24:02.216Z,18.42
2023-08-22T20:26:29.471Z,16.83
2023-08-22T20:28:56.165Z,16.40
2023-08-22T20:31:23.415Z,16.52
2023-08-22T20:33:50.143Z,17.05
2023-08-22T20:36:16.890Z,16.73
2023-08-22T20:38:43.543Z,18.45
2023-08-22T20:41:18.746Z,19.25
2023-08-22T20:43:57.162Z,17.73
2023-08-22T20:46:24.124Z,17.65
2023-08-22T20:48:54.686Z,17.77
2023-08-22T20:51:21.572Z,19.23
2023-08-22T20:53:51.026Z,18.13
2023-08-22T20:56:20.039Z,18.02
2023-08-22T20:58:49.900Z,18.35
2023-08-22T21:01:17.415Z,19.40
2023-08-22T21:03:46.110Z,18.48
2023-08-22T21:06:14.682Z,18.58
2023-08-22T21:08:41.806Z,17.45
2023-08-22T21:11:08.758Z,18.17
2023-08-22T21:13:35.622Z,19.48
2023-08-22T21:16:13.819Z,18.23
2023-08-22T21:18:50.834Z,18.52
2023-08-22T21:21:28.141Z,19.52
2023-08-22T21:23:58.991Z,18.70
2023-08-22T21:26:25.880Z,18.13
2023-08-22T21:28:52.817Z,17.42
2023-08-22T21:31:23.363Z,19.40
2023-08-22T21:33:50.288Z,19.02
2023-08-22T21:36:18.656Z,20.02
2023-08-22T21:38:45.480Z,18.45
2023-08-22T21:41:12.285Z,18.70
2023-08-22T21:43:39.218Z,19.25
2023-08-22T21:46:08.593Z,19.33
2023-08-22T21:48:43.493Z,19.27
2023-08-22T21:51:10.588Z,19.63
2023-08-22T21:53:46.733Z,18.35
2023-08-22T21:56:16.699Z,18.65
2023-08-22T21:58:46.264Z,20.23
2023-08-22T22:01:14.358Z,18.80
2023-08-22T22:03:46.702Z,19.00
2023-08-22T22:06:13.429Z,18.88
2023-08-22T22:08:42.361Z,19.80
2023-08-22T22:11:09.141Z,19.67
2023-08-22T22:13:41.282Z,19.73
2023-08-22T22:16:15.503Z,18.65
2023-08-22T22:18:42.459Z,17.10
2023-08-22T22:21:09.222Z,18.42
2023-08-22T22:23:43.845Z,18.58
2023-08-22T22:26:15.043Z,18.23
2023-08-22T22:28:42.033Z,18.55
2023-08-22T22:31:11.894Z,19.33
2023-08-22T22:33:39.774Z,18.10
2023-08-22T22:36:07.223Z,17.73
2023-08-22T22:38:35.057Z,19.30
2023-08-22T22:41:03.483Z,18.38
2023-08-22T22:43:36.923Z,18.73
2023-08-22T22:46:04.651Z,18.40
2023-08-22T22:48:31.643Z,18.95
2023-08-22T22:50:58.409Z,17.52
2023-08-22T22:53:25.214Z,19.10
2023-08-22T22:55:52.249Z,17.63
2023-08-22T22:58:19.152Z,17.40
2023-08-22T23:00:46.534Z,17.67
2023-08-22T23:03:18.593Z,18.83
2023-08-22T23:05:45.478Z,17.63
2023-08-22T23:08:12.330Z,18.75
2023-08-22T23:10:39.037Z,19.60
2023-08-22T23:13:09.433Z,21.13
2023-08-22T23:15:36.450Z,19.45
2023-08-22T23:18:03.435Z,20.13
2023-08-22T23:20:31.135Z,18.60
2023-08-22T23:22:57.980Z,20.48
2023-08-22T23:25:24.782Z,20.20
2023-08-22T23:27:51.605Z,19.85
2023-08-22T23:30:18.373Z,20.80
2023-08-22T23:32:46.065Z,20.63
2023-08-22T23:35:21.566Z,20.48
2023-08-22T23:37:50.495Z,18.63
2023-08-22T23:40:29.722Z,19.17
2023-08-22T23:43:01.355Z,20.33
2023-08-22T23:45:31.475Z,20.13
2023-08-22T23:47:59.753Z,20.10
2023-08-22T23:50:31.176Z,21.17
2023-08-22T23:53:00.632Z,19.88
2023-08-22T23:55:27.375Z,19.67
2023-08-22T23:58:01.986Z,19.92
